Scotter, United Kingdom
Current Conditions -  °F | °C
As of 4:50 PM on Monday 22 Dec 2014 (Local Time) from EGCN Reporting Station
Broken Clouds Broken Clouds  
Wind Chill: 13°   Ceiling: 3000
Heat Index: 13°   Visibility: 6mi
Dew Point:   Wind: 21mph
Humidity: 77%   Direction: 230°SW
Pressure: 29.85"   Gusts: 36mph
Location:  53.5°N, 0.67°W
Report Text: EGCN 221650Z 23018G31KT 9999 SCT024 BKN030 13/09 Q1011
Loading
Personal Weather Stations






























Interactive Weather Map New forecast layout! Learn more

10-Day Weather Forecast

Advertisements
Track Severe Weather on mobile